Time;durP1;ratioP1;P1;durP2;ratioP2;P2;SDS_P1;SDS_P2;PMS_P1;PMS_P2;Temp;Humidity;BMP_temperature;BMP_pressure;BME280_temperature;BME280_humidity;BME280_pressure;Samples;Min_cycle;Max_cycle;Signal;HPM_P1;HPM_P2
2021/12/19 00:02:30;;;;;;;0.60;0.40;;;5.60;99.90;;;;;;5040407;28;20290;-94
2021/12/19 00:10:39;;;;;;;1.53;1.23;;;5.60;99.90;;;;;;5041450;28;20311;-95
2021/12/19 00:13:13;;;;;;;2.40;1.00;;;5.60;99.90;;;;;;5039199;28;20816;-96
2021/12/19 00:15:44;;;;;;;1.57;0.50;;;5.60;99.90;;;;;;5024399;28;20232;-96
2021/12/19 00:18:16;;;;;;;1.67;1.10;;;5.60;99.90;;;;;;5022025;28;20577;-95
2021/12/19 00:20:48;;;;;;;1.63;0.63;;;5.60;99.90;;;;;;5027467;28;20334;-96
2021/12/19 00:23:39;;;;;;;1.07;0.70;;;5.60;99.90;;;;;;5049942;28;20300;-96
2021/12/19 00:26:10;;;;;;;0.87;0.63;;;5.60;99.90;;;;;;5055597;28;20204;-95
2021/12/19 00:28:45;;;;;;;2.43;0.40;;;5.60;99.90;;;;;;5056211;28;20240;-96
2021/12/19 00:31:17;;;;;;;1.97;0.50;;;5.50;99.90;;;;;;5054432;28;20199;-95
2021/12/19 00:33:49;;;;;;;1.70;0.57;;;5.50;99.90;;;;;;5049684;28;20239;-95
2021/12/19 00:36:21;;;;;;;2.13;0.90;;;5.50;99.90;;;;;;5043280;28;20236;-96
2021/12/19 00:38:52;;;;;;;0.93;0.70;;;5.60;99.90;;;;;;5041398;28;20217;-96
2021/12/19 00:41:24;;;;;;;2.20;2.00;;;5.50;99.90;;;;;;5038786;28;20300;-96
2021/12/19 00:44:07;;;;;;;1.00;0.50;;;5.50;99.90;;;;;;5040086;28;20205;-95
2021/12/19 00:46:48;;;;;;;1.50;1.30;;;5.50;99.90;;;;;;5037890;28;20233;-96
2021/12/19 00:49:22;;;;;;;8.23;7.60;;;5.50;99.90;;;;;;5039576;28;20212;-95
2021/12/19 00:51:54;;;;;;;2.00;1.73;;;5.40;99.90;;;;;;5038758;28;20220;-96
2021/12/19 00:54:25;;;;;;;1.87;1.67;;;5.40;99.90;;;;;;5040473;28;20233;-96
2021/12/19 00:56:56;;;;;;;29.37;10.13;;;5.40;99.90;;;;;;5039861;28;20205;-94
2021/12/19 00:59:30;;;;;;;2.57;1.40;;;5.30;99.90;;;;;;5044745;28;20268;-95
2021/12/19 01:02:01;;;;;;;1.10;1.00;;;5.30;99.90;;;;;;5039401;28;20213;-95
2021/12/19 01:04:33;;;;;;;1.40;1.30;;;5.30;99.90;;;;;;5041313;28;20205;-96
2021/12/19 01:07:12;;;;;;;1.30;1.03;;;5.30;99.90;;;;;;5043448;28;20707;-96
2021/12/19 01:09:44;;;;;;;1.50;1.10;;;5.20;99.90;;;;;;5040130;28;20211;-96
2021/12/19 01:12:17;;;;;;;1.33;0.80;;;5.20;99.90;;;;;;5041445;28;20217;-96
2021/12/19 01:14:49;;;;;;;2.97;2.73;;;5.20;99.90;;;;;;5038098;28;20235;-96
2021/12/19 01:17:23;;;;;;;2.80;2.60;;;5.30;99.90;;;;;;5038048;28;20248;-96
2021/12/19 01:19:55;;;;;;;0.80;0.70;;;5.20;99.90;;;;;;5040678;28;20299;-96
2021/12/19 01:22:28;;;;;;;1.73;1.10;;;5.20;99.90;;;;;;5059122;28;20251;-95
2021/12/19 01:24:59;;;;;;;1.03;0.93;;;5.20;99.90;;;;;;5061420;28;20232;-96
2021/12/19 01:27:31;;;;;;;1.67;1.17;;;5.20;99.90;;;;;;5058867;28;20237;-95
2021/12/19 01:30:07;;;;;;;0.80;0.80;;;5.20;99.90;;;;;;5059169;28;20272;-96
2021/12/19 01:32:40;;;;;;;8.00;7.43;;;5.10;99.90;;;;;;5041752;28;20216;-95
2021/12/19 01:35:14;;;;;;;1.50;1.40;;;5.10;99.90;;;;;;5043238;28;20236;-95
2021/12/19 01:37:46;;;;;;;1.27;0.80;;;5.10;99.90;;;;;;5036663;28;20266;-96
2021/12/19 01:40:20;;;;;;;1.63;1.30;;;5.10;99.90;;;;;;5039698;28;20291;-95
2021/12/19 01:42:55;;;;;;;2.90;0.90;;;5.10;99.90;;;;;;5067860;23;20241;-96
2021/12/19 01:45:33;;;;;;;2.63;0.83;;;5.10;99.90;;;;;;5039884;28;20278;-94
2021/12/19 01:48:10;;;;;;;3.70;0.63;;;5.10;99.90;;;;;;5041069;28;20208;-96
2021/12/19 01:50:44;;;;;;;2.30;1.00;;;5.10;99.90;;;;;;5042442;28;20630;-96
2021/12/19 01:53:16;;;;;;;3.30;0.93;;;5.10;99.90;;;;;;5043560;28;20235;-96
2021/12/19 01:55:49;;;;;;;2.77;1.00;;;5.00;99.90;;;;;;5041767;28;20239;-96
2021/12/19 01:58:24;;;;;;;1.00;0.50;;;5.00;99.90;;;;;;5042152;28;20232;-96
2021/12/19 02:00:59;;;;;;;2.87;0.70;;;5.00;99.90;;;;;;5043484;28;20277;-96
2021/12/19 02:03:35;;;;;;;0.80;0.73;;;4.90;99.90;;;;;;5043733;28;20246;-96
2021/12/19 02:06:10;;;;;;;0.83;0.67;;;4.90;99.90;;;;;;5048545;28;20200;-94
2021/12/19 02:08:44;;;;;;;2.70;0.80;;;4.90;99.90;;;;;;5047244;28;20208;-96
2021/12/19 02:11:16;;;;;;;0.87;0.67;;;4.90;99.90;;;;;;5045152;28;20228;-96
2021/12/19 02:13:48;;;;;;;4.87;0.97;;;4.90;99.90;;;;;;5047106;28;20772;-94
2021/12/19 02:16:22;;;;;;;4.43;1.83;;;4.90;99.90;;;;;;5047661;28;20216;-95
2021/12/19 02:18:54;;;;;;;2.47;1.10;;;4.90;99.90;;;;;;5045140;28;20212;-95
2021/12/19 02:21:28;;;;;;;2.13;0.90;;;4.90;99.90;;;;;;5044200;28;20205;-94
2021/12/19 02:24:03;;;;;;;2.03;0.67;;;4.90;99.90;;;;;;5044333;28;20218;-95
2021/12/19 02:26:35;;;;;;;2.80;0.70;;;4.80;99.90;;;;;;5042237;28;20212;-96
2021/12/19 02:29:08;;;;;;;1.10;0.80;;;4.80;99.90;;;;;;5045802;28;20309;-95
2021/12/19 02:31:49;;;;;;;1.50;0.80;;;4.80;99.90;;;;;;5046480;28;20213;-96
2021/12/19 02:34:28;;;;;;;2.50;0.80;;;4.80;99.90;;;;;;5042663;28;20282;-95
2021/12/19 02:37:07;;;;;;;2.03;0.80;;;4.80;99.90;;;;;;5042873;28;20212;-96
2021/12/19 02:48:12;;;;;;;1.93;0.93;;;4.70;99.90;;;;;;5054424;28;20216;-95
2021/12/19 02:50:47;;;;;;;3.50;0.90;;;4.70;99.90;;;;;;5053385;28;20205;-95
2021/12/19 02:53:30;;;;;;;2.97;0.80;;;4.70;99.90;;;;;;5044585;28;20247;-96
2021/12/19 02:56:02;;;;;;;4.50;1.10;;;4.60;99.90;;;;;;5042658;28;20256;-96
2021/12/19 02:58:37;;;;;;;4.17;1.17;;;4.60;99.90;;;;;;5039943;28;20209;-96
2021/12/19 03:01:12;;;;;;;3.63;0.90;;;4.60;99.90;;;;;;5040947;28;20204;-95
2021/12/19 03:03:43;;;;;;;3.23;0.90;;;4.60;99.90;;;;;;5039190;28;20628;-96
2021/12/19 03:06:17;;;;;;;2.10;1.03;;;4.60;99.90;;;;;;5038224;28;20217;-95
2021/12/19 03:08:51;;;;;;;4.93;1.13;;;4.60;99.90;;;;;;5039012;28;20241;-96
2021/12/19 03:20:01;;;;;;;1.77;0.90;;;4.50;99.90;;;;;;5012672;28;20206;-95
2021/12/19 03:22:33;;;;;;;4.63;1.13;;;4.50;99.90;;;;;;5033250;28;20224;-95
2021/12/19 03:25:08;;;;;;;1.60;0.50;;;4.50;99.90;;;;;;5053017;28;20205;-95
2021/12/19 03:27:40;;;;;;;1.20;0.87;;;4.40;99.90;;;;;;5044777;28;20212;-96
2021/12/19 03:30:13;;;;;;;4.27;1.00;;;4.40;99.90;;;;;;5025243;28;20227;-94
2021/12/19 03:32:46;;;;;;;4.87;0.97;;;4.30;99.90;;;;;;5043962;28;20209;-96
2021/12/19 03:35:18;;;;;;;2.63;2.03;;;4.30;99.90;;;;;;5043616;28;20273;-96
2021/12/19 03:37:50;;;;;;;3.73;0.83;;;4.20;99.90;;;;;;5038173;28;20263;-96
2021/12/19 03:40:35;;;;;;;4.63;1.17;;;4.20;99.90;;;;;;5042080;28;20231;-96
2021/12/19 03:43:08;;;;;;;2.07;1.27;;;4.10;99.90;;;;;;5046675;28;20220;-96
2021/12/19 03:45:40;;;;;;;6.20;1.30;;;4.00;99.90;;;;;;5037492;28;20287;-96
2021/12/19 03:48:14;;;;;;;3.67;1.20;;;4.00;99.90;;;;;;5039807;28;20201;-96
2021/12/19 03:50:52;;;;;;;3.90;0.80;;;4.00;99.90;;;;;;5042172;28;20204;-96
2021/12/19 03:53:24;;;;;;;2.67;0.80;;;4.00;99.90;;;;;;5039617;28;20300;-96
2021/12/19 03:55:58;;;;;;;3.37;0.80;;;4.00;99.90;;;;;;5040472;28;20255;-96
2021/12/19 03:58:31;;;;;;;2.80;0.83;;;4.00;99.90;;;;;;5042439;28;20205;-95
2021/12/19 04:01:06;;;;;;;2.83;0.83;;;4.00;99.90;;;;;;5043067;28;20268;-96
2021/12/19 04:03:37;;;;;;;4.30;1.77;;;4.00;99.90;;;;;;5054937;28;20242;-96
2021/12/19 04:06:13;;;;;;;2.23;1.10;;;4.00;99.90;;;;;;5056188;28;20223;-95
2021/12/19 04:08:46;;;;;;;5.13;1.00;;;4.00;99.90;;;;;;5056254;28;20201;-95
2021/12/19 04:11:20;;;;;;;4.20;1.30;;;4.00;99.90;;;;;;5051242;28;20204;-96
2021/12/19 04:13:51;;;;;;;7.43;1.47;;;4.00;99.90;;;;;;5030333;28;20216;-95
2021/12/19 04:16:25;;;;;;;2.20;1.20;;;4.00;99.90;;;;;;5046554;28;20259;-95
2021/12/19 04:18:56;;;;;;;2.83;1.10;;;4.00;99.90;;;;;;5045218;28;20212;-96
2021/12/19 04:21:29;;;;;;;2.37;1.10;;;4.00;99.90;;;;;;5042664;28;20258;-96
2021/12/19 04:24:01;;;;;;;3.20;1.50;;;4.00;99.90;;;;;;5026039;28;20208;-95
2021/12/19 04:26:35;;;;;;;6.77;1.20;;;4.00;99.90;;;;;;5043822;28;20255;-96
2021/12/19 04:29:07;;;;;;;2.67;0.73;;;4.00;99.90;;;;;;5042907;28;20215;-95
2021/12/19 04:31:38;;;;;;;6.03;1.30;;;4.00;99.90;;;;;;5039062;28;20233;-96
2021/12/19 04:34:12;;;;;;;5.17;1.00;;;4.00;99.90;;;;;;5037938;28;20236;-96
2021/12/19 04:36:46;;;;;;;5.47;1.20;;;3.90;99.90;;;;;;5037471;28;20681;-96
2021/12/19 04:39:29;;;;;;;5.10;1.57;;;3.90;99.90;;;;;;5020111;28;20277;-95
2021/12/19 04:51:09;;;;;;;6.80;1.10;;;4.00;99.90;;;;;;5024011;28;20235;-96
2021/12/19 04:53:53;;;;;;;3.47;0.80;;;4.00;99.90;;;;;;5029493;28;20208;-94
2021/12/19 04:56:39;;;;;;;4.93;1.13;;;4.10;99.90;;;;;;5042761;28;20263;-95
2021/12/19 04:59:49;;;;;;;5.13;1.00;;;4.10;99.90;;;;;;5022789;28;20190;-96
2021/12/19 05:02:26;;;;;;;4.50;1.10;;;4.10;99.90;;;;;;5021108;28;20214;-95
2021/12/19 05:16:25;;;;;;;5.03;1.33;;;4.10;99.90;;;;;;5021159;28;20256;-96
2021/12/19 05:19:04;;;;;;;5.30;1.77;;;4.10;99.90;;;;;;5002703;28;20250;-96
2021/12/19 05:21:39;;;;;;;4.17;0.80;;;4.10;99.90;;;;;;5019525;28;20280;-96
2021/12/19 05:24:44;;;;;;;4.63;1.20;;;4.00;99.90;;;;;;5019733;28;20236;-96
2021/12/19 05:27:16;;;;;;;5.87;1.33;;;4.00;99.90;;;;;;5016822;28;20223;-96
2021/12/19 05:30:02;;;;;;;5.83;1.33;;;3.90;99.90;;;;;;5007032;28;20235;-96
2021/12/19 05:32:37;;;;;;;3.00;1.10;;;3.90;99.90;;;;;;5036195;28;20255;-96
2021/12/19 05:35:10;;;;;;;4.23;0.93;;;4.00;99.90;;;;;;5024456;28;20200;-95
2021/12/19 05:46:18;;;;;;;6.70;1.23;;;4.00;99.90;;;;;;5036844;28;20281;-96
2021/12/19 05:48:51;;;;;;;4.53;1.07;;;4.00;99.90;;;;;;5036442;28;20209;-95
2021/12/19 05:51:22;;;;;;;6.07;1.30;;;4.00;99.90;;;;;;5036069;28;20284;-93
2021/12/19 05:53:53;;;;;;;3.80;1.13;;;4.10;99.90;;;;;;5036022;28;20248;-96
2021/12/19 05:56:25;;;;;;;7.83;1.10;;;4.10;99.90;;;;;;5035598;28;20236;-96
2021/12/19 05:58:59;;;;;;;5.90;1.50;;;4.10;99.90;;;;;;5035593;28;20235;-95
2021/12/19 06:01:31;;;;;;;6.93;1.20;;;4.10;99.90;;;;;;5035488;28;20300;-95
2021/12/19 06:04:03;;;;;;;5.20;1.17;;;4.20;99.90;;;;;;5036426;28;20295;-96
2021/12/19 06:06:35;;;;;;;6.03;1.20;;;4.20;99.90;;;;;;5034985;28;20208;-96
2021/12/19 06:09:06;;;;;;;6.73;1.60;;;4.20;99.90;;;;;;5035802;28;20240;-95
2021/12/19 06:11:38;;;;;;;5.27;1.13;;;4.20;99.90;;;;;;5035939;28;20262;-96
2021/12/19 06:14:11;;;;;;;4.27;0.90;;;4.20;99.90;;;;;;5035185;28;20259;-95
2021/12/19 06:16:43;;;;;;;8.03;1.50;;;4.30;99.90;;;;;;5034864;28;20836;-95
2021/12/19 06:19:19;;;;;;;10.00;1.50;;;4.30;99.90;;;;;;5035217;28;20216;-96
2021/12/19 06:21:52;;;;;;;9.83;1.47;;;4.40;99.90;;;;;;5035824;28;20207;-96
2021/12/19 06:24:24;;;;;;;7.67;1.47;;;4.40;99.90;;;;;;5036013;28;20680;-96
2021/12/19 06:26:56;;;;;;;4.40;1.20;;;4.40;99.90;;;;;;5035067;28;20201;-95
2021/12/19 06:29:28;;;;;;;6.20;1.47;;;4.40;99.90;;;;;;5035493;28;20240;-95
2021/12/19 06:32:00;;;;;;;10.40;1.37;;;4.40;99.90;;;;;;5039944;28;20259;-95
2021/12/19 06:34:33;;;;;;;4.30;1.27;;;4.50;99.90;;;;;;5042521;28;20233;-95
2021/12/19 06:37:09;;;;;;;6.80;1.70;;;4.50;99.90;;;;;;5042336;28;20275;-96
2021/12/19 06:39:41;;;;;;;4.37;1.33;;;4.50;99.90;;;;;;5042343;28;20239;-96
2021/12/19 06:42:12;;;;;;;10.37;1.40;;;4.50;99.90;;;;;;5041301;28;20205;-96
2021/12/19 06:44:43;;;;;;;6.80;1.50;;;4.60;99.90;;;;;;5041958;28;20213;-96
2021/12/19 06:47:15;;;;;;;10.20;1.17;;;4.60;99.90;;;;;;5041025;28;20209;-95
2021/12/19 06:49:48;;;;;;;5.13;1.20;;;4.60;99.90;;;;;;5045320;28;20266;-95
2021/12/19 06:52:20;;;;;;;6.73;1.03;;;4.60;99.90;;;;;;5027631;28;20241;-95
2021/12/19 06:54:52;;;;;;;14.20;2.03;;;4.70;99.90;;;;;;5042315;28;20212;-96
2021/12/19 06:57:23;;;;;;;6.40;1.90;;;4.70;99.90;;;;;;5038866;28;20233;-95
2021/12/19 06:59:55;;;;;;;3.87;1.00;;;4.70;99.90;;;;;;5021934;28;20232;-96
2021/12/19 07:02:26;;;;;;;5.83;1.30;;;4.70;99.90;;;;;;5038791;28;20288;-95
2021/12/19 07:05:01;;;;;;;4.73;1.33;;;4.70;99.90;;;;;;5038732;28;20244;-96
2021/12/19 07:07:32;;;;;;;7.00;2.47;;;4.70;99.90;;;;;;5041813;28;20212;-95
2021/12/19 07:10:04;;;;;;;7.27;1.60;;;4.70;99.90;;;;;;5041790;28;20208;-94
2021/12/19 07:12:35;;;;;;;10.33;1.53;;;4.70;99.90;;;;;;5041743;28;20300;-95
2021/12/19 07:15:08;;;;;;;9.93;1.43;;;4.70;99.90;;;;;;5058657;28;20192;-95
2021/12/19 07:17:39;;;;;;;7.20;1.93;;;4.80;99.90;;;;;;5061278;28;20216;-95
2021/12/19 07:20:14;;;;;;;8.20;1.80;;;4.80;99.90;;;;;;5073455;28;20235;-95
2021/12/19 07:22:47;;;;;;;7.20;1.93;;;4.80;99.90;;;;;;5065140;28;20207;-95
2021/12/19 07:25:19;;;;;;;9.10;1.53;;;4.80;99.90;;;;;;5063151;28;20280;-96
2021/12/19 07:27:50;;;;;;;5.57;1.43;;;4.80;99.90;;;;;;5058478;28;20207;-96
2021/12/19 07:30:24;;;;;;;6.73;1.40;;;4.80;99.90;;;;;;5053176;28;20228;-96
2021/12/19 07:32:57;;;;;;;7.90;1.67;;;4.80;99.90;;;;;;5038584;28;20203;-94
2021/12/19 07:35:35;;;;;;;5.40;1.70;;;4.80;99.90;;;;;;5038594;28;20221;-96
2021/12/19 07:38:09;;;;;;;13.73;1.83;;;4.90;99.90;;;;;;5036807;28;20377;-96
2021/12/19 07:40:46;;;;;;;8.57;1.70;;;4.90;99.90;;;;;;5038047;28;20247;-95
2021/12/19 07:43:17;;;;;;;6.97;1.50;;;4.90;99.90;;;;;;5035923;28;20288;-96
2021/12/19 07:45:49;;;;;;;9.63;1.50;;;4.90;99.90;;;;;;5037990;28;20243;-94
2021/12/19 07:48:21;;;;;;;10.20;1.67;;;4.90;99.90;;;;;;5036844;28;20463;-96
2021/12/19 07:50:55;;;;;;;5.00;1.40;;;4.90;99.90;;;;;;5037189;28;20228;-96
2021/12/19 07:53:26;;;;;;;10.47;1.90;;;4.90;99.90;;;;;;5037291;28;20273;-96
2021/12/19 07:55:59;;;;;;;4.93;1.40;;;4.90;99.90;;;;;;5038185;28;20213;-96
2021/12/19 07:58:30;;;;;;;8.60;1.60;;;4.90;99.90;;;;;;5037967;28;20283;-96
2021/12/19 08:01:03;;;;;;;8.73;1.67;;;4.90;99.90;;;;;;5038150;28;20262;-96
2021/12/19 08:03:35;;;;;;;7.40;2.00;;;4.90;99.90;;;;;;5037882;28;20282;-96
2021/12/19 08:06:08;;;;;;;8.60;1.70;;;4.90;99.90;;;;;;5036490;28;20236;-96
2021/12/19 08:08:46;;;;;;;5.57;1.50;;;4.90;99.90;;;;;;5037467;28;20251;-96
2021/12/19 08:14:05;;;;;;;10.80;1.87;;;4.90;99.90;;;;;;5021337;28;20265;-95
2021/12/19 08:16:37;;;;;;;5.77;1.53;;;4.90;99.90;;;;;;5000341;28;20236;-96
2021/12/19 08:19:09;;;;;;;9.43;1.50;;;4.90;99.90;;;;;;5021310;28;20224;-96
2021/12/19 08:21:42;;;;;;;7.47;1.57;;;4.90;99.90;;;;;;5035167;28;20219;-96
2021/12/19 08:24:14;;;;;;;8.67;1.70;;;4.90;99.90;;;;;;5037461;28;20205;-96
2021/12/19 08:26:47;;;;;;;9.97;1.80;;;4.90;99.90;;;;;;5015925;28;20260;-95
2021/12/19 08:29:18;;;;;;;10.33;2.13;;;4.80;99.90;;;;;;5018414;28;20244;-94
2021/12/19 08:31:50;;;;;;;9.77;1.83;;;4.80;99.90;;;;;;5030330;28;20201;-96
2021/12/19 08:34:21;;;;;;;10.33;1.73;;;4.80;99.90;;;;;;5040153;28;20213;-93
2021/12/19 08:36:54;;;;;;;10.60;1.90;;;4.80;99.90;;;;;;5041200;28;20608;-96
2021/12/19 08:39:28;;;;;;;9.63;2.13;;;4.80;99.90;;;;;;5039721;28;20291;-94
2021/12/19 08:41:59;;;;;;;14.33;1.80;;;4.80;99.90;;;;;;5038003;28;20220;-93
2021/12/19 08:44:31;;;;;;;6.63;1.80;;;4.80;99.90;;;;;;5040811;28;20243;-94
2021/12/19 08:47:03;;;;;;;8.53;1.67;;;4.80;99.90;;;;;;5037131;28;20720;-95
2021/12/19 08:49:35;;;;;;;10.80;2.10;;;4.80;99.90;;;;;;5037417;28;20209;-96
2021/12/19 08:52:11;;;;;;;8.20;1.80;;;4.80;99.90;;;;;;5019982;28;20231;-95
2021/12/19 08:54:41;;;;;;;10.13;1.93;;;4.80;99.90;;;;;;5037007;28;20280;-96
2021/12/19 08:57:13;;;;;;;7.57;1.63;;;4.80;99.90;;;;;;5036682;28;20283;-95
2021/12/19 08:59:45;;;;;;;8.00;1.80;;;4.80;99.90;;;;;;5039229;28;20284;-94
2021/12/19 09:02:16;;;;;;;7.77;2.00;;;4.80;99.90;;;;;;5046966;28;20213;-95
2021/12/19 09:04:47;;;;;;;9.67;2.30;;;4.80;99.90;;;;;;5039468;28;20295;-94
2021/12/19 09:07:20;;;;;;;8.10;2.23;;;4.80;99.90;;;;;;5036287;28;20240;-96
2021/12/19 09:09:52;;;;;;;9.47;2.47;;;4.80;99.90;;;;;;5037240;28;20205;-95
2021/12/19 09:12:23;;;;;;;9.80;2.07;;;4.80;99.90;;;;;;5037013;28;20200;-95
2021/12/19 09:14:54;;;;;;;10.93;1.90;;;4.80;99.90;;;;;;5040482;28;20248;-95
2021/12/19 09:17:26;;;;;;;10.30;1.80;;;4.80;99.90;;;;;;5037444;28;20240;-95
2021/12/19 09:19:58;;;;;;;7.67;1.60;;;4.80;99.90;;;;;;5037579;28;20229;-95
2021/12/19 09:22:31;;;;;;;10.80;1.87;;;4.80;99.90;;;;;;5038891;28;20284;-95
2021/12/19 09:25:19;;;;;;;9.53;1.63;;;4.80;99.90;;;;;;5037859;28;20212;-94
2021/12/19 09:27:51;;;;;;;11.10;1.83;;;4.80;99.90;;;;;;5052751;28;20678;-96
2021/12/19 09:30:26;;;;;;;7.70;1.63;;;4.80;99.90;;;;;;5055198;28;20233;-96
2021/12/19 09:32:57;;;;;;;11.13;2.10;;;4.80;99.90;;;;;;5049489;28;20208;-94
2021/12/19 09:35:29;;;;;;;11.27;1.80;;;4.80;99.90;;;;;;5040355;28;20371;-94
2021/12/19 09:38:02;;;;;;;7.30;2.03;;;4.80;99.90;;;;;;5039577;28;20252;-94
2021/12/19 09:40:37;;;;;;;11.60;1.87;;;4.80;99.90;;;;;;5048286;28;20189;-93
2021/12/19 09:43:31;;;;;;;8.80;1.80;;;4.90;99.90;;;;;;5055977;28;20238;-92
2021/12/19 09:46:02;;;;;;;7.63;2.10;;;4.90;99.90;;;;;;5055112;28;20193;-96
2021/12/19 09:48:33;;;;;;;8.57;1.83;;;4.90;99.90;;;;;;5054202;28;20204;-95
2021/12/19 09:51:05;;;;;;;7.33;1.80;;;4.90;99.90;;;;;;5056061;28;20201;-96
2021/12/19 09:53:41;;;;;;;5.80;1.70;;;4.90;99.90;;;;;;5055625;28;20282;-92
2021/12/19 09:56:13;;;;;;;13.93;1.80;;;4.90;99.90;;;;;;5055105;28;20196;-96
2021/12/19 09:58:45;;;;;;;7.87;1.80;;;4.90;99.90;;;;;;5052439;28;20236;-96
2021/12/19 10:01:16;;;;;;;6.13;1.70;;;4.90;99.90;;;;;;5037510;28;20205;-95
2021/12/19 10:03:48;;;;;;;6.33;1.77;;;4.90;99.90;;;;;;5020619;28;20209;-95
2021/12/19 10:06:21;;;;;;;7.63;1.60;;;4.90;99.90;;;;;;5039238;28;20220;-95
2021/12/19 10:09:10;;;;;;;9.37;1.73;;;4.90;99.90;;;;;;5040614;28;20661;-95
2021/12/19 10:11:54;;;;;;;11.70;1.50;;;4.90;99.90;;;;;;5042454;28;20292;-95
2021/12/19 10:14:27;;;;;;;7.20;1.50;;;4.90;99.90;;;;;;5039943;28;20205;-94
2021/12/19 10:17:00;;;;;;;6.67;1.80;;;4.90;99.90;;;;;;5038839;28;20229;-94
2021/12/19 10:19:45;;;;;;;8.80;1.60;;;4.90;99.90;;;;;;5042379;28;20382;-95
2021/12/19 10:22:27;;;;;;;6.63;1.40;;;4.90;99.90;;;;;;5043948;28;20208;-95
2021/12/19 10:25:20;;;;;;;10.13;1.70;;;4.90;99.90;;;;;;5045232;28;20248;-94
2021/12/19 10:27:53;;;;;;;4.17;1.23;;;4.90;99.90;;;;;;5040592;28;20205;-95
2021/12/19 10:30:29;;;;;;;4.40;1.33;;;4.90;99.90;;;;;;5043679;28;20212;-94
2021/12/19 10:33:02;;;;;;;8.13;1.90;;;5.00;99.90;;;;;;5040827;28;20237;-94
2021/12/19 10:35:35;;;;;;;9.73;1.87;;;5.00;99.90;;;;;;5040023;28;20232;-94
2021/12/19 10:38:08;;;;;;;6.40;2.03;;;5.00;99.90;;;;;;5039267;28;20332;-95
2021/12/19 10:40:41;;;;;;;6.90;2.00;;;5.00;99.90;;;;;;5039407;28;20213;-95
2021/12/19 10:43:16;;;;;;;5.17;1.83;;;5.00;99.90;;;;;;5041651;28;20216;-93
2021/12/19 10:45:49;;;;;;;8.13;1.80;;;5.00;99.90;;;;;;5042067;28;20292;-95
2021/12/19 10:48:25;;;;;;;5.33;1.57;;;4.90;99.90;;;;;;5044935;28;20217;-95
2021/12/19 10:51:02;;;;;;;8.13;1.80;;;4.90;99.90;;;;;;5024958;28;20263;-95
2021/12/19 10:53:37;;;;;;;7.03;1.90;;;4.90;99.90;;;;;;5045830;28;20212;-93
2021/12/19 10:56:16;;;;;;;5.97;1.37;;;4.90;99.90;;;;;;5028990;28;20216;-95
2021/12/19 10:58:52;;;;;;;12.13;1.77;;;4.90;99.90;;;;;;5043910;28;20256;-94
2021/12/19 11:01:29;;;;;;;7.67;1.60;;;4.90;99.90;;;;;;5039509;28;20220;-94
2021/12/19 11:04:04;;;;;;;10.33;1.90;;;4.90;99.90;;;;;;5059418;28;20180;-95
2021/12/19 11:06:39;;;;;;;8.27;2.00;;;4.90;99.90;;;;;;5055876;28;20264;-95
2021/12/19 11:09:13;;;;;;;13.37;2.13;;;4.80;99.90;;;;;;5058901;28;20209;-96
2021/12/19 11:12:02;;;;;;;8.50;1.53;;;4.80;99.90;;;;;;5058635;28;20192;-95
2021/12/19 11:14:37;;;;;;;10.33;1.70;;;4.80;99.90;;;;;;5058436;28;20223;-96
2021/12/19 11:17:10;;;;;;;12.47;2.20;;;4.80;99.90;;;;;;5053366;28;20223;-92
2021/12/19 11:19:42;;;;;;;7.97;1.93;;;4.90;99.90;;;;;;5056725;28;20232;-94
2021/12/19 11:22:23;;;;;;;9.10;1.70;;;4.80;99.90;;;;;;5058673;28;20201;-95
2021/12/19 11:24:57;;;;;;;10.63;1.50;;;4.80;99.90;;;;;;5057583;28;20195;-95
2021/12/19 11:27:32;;;;;;;18.83;2.47;;;4.80;99.90;;;;;;5057860;28;20220;-95
2021/12/19 11:30:04;;;;;;;7.50;1.40;;;4.70;99.90;;;;;;5078074;28;20226;-94
2021/12/19 11:32:46;;;;;;;14.93;1.87;;;4.70;99.90;;;;;;5058359;28;20193;-95
2021/12/19 11:35:23;;;;;;;6.47;1.80;;;4.70;99.90;;;;;;5050086;28;20240;-95
2021/12/19 11:37:58;;;;;;;8.57;1.73;;;4.70;99.90;;;;;;5044197;28;20208;-95
2021/12/19 11:40:35;;;;;;;14.30;2.10;;;4.70;99.90;;;;;;5028040;28;20236;-94
2021/12/19 11:43:11;;;;;;;7.77;1.47;;;4.80;99.90;;;;;;5057375;28;20205;-94
2021/12/19 11:45:49;;;;;;;9.50;1.70;;;4.80;99.90;;;;;;5054905;28;20207;-95
2021/12/19 11:48:24;;;;;;;9.67;2.03;;;4.80;99.90;;;;;;5045968;28;20213;-94
2021/12/19 11:50:57;;;;;;;7.37;1.53;;;4.70;99.90;;;;;;5050728;28;20196;-96
2021/12/19 11:53:30;;;;;;;10.73;1.67;;;4.70;99.90;;;;;;5043912;28;20205;-95
2021/12/19 11:56:10;;;;;;;8.27;1.70;;;4.70;99.90;;;;;;5043717;28;20224;-96
2021/12/19 11:58:45;;;;;;;5.20;1.30;;;4.70;99.90;;;;;;5040075;28;20264;-95
2021/12/19 12:01:23;;;;;;;8.40;1.77;;;4.70;99.90;;;;;;5040449;28;20231;-95
2021/12/19 12:03:56;;;;;;;13.83;2.20;;;4.80;99.90;;;;;;5022967;28;20221;-95
2021/12/19 12:06:37;;;;;;;10.37;2.10;;;4.70;99.90;;;;;;5040027;28;20661;-96
2021/12/19 12:09:28;;;;;;;8.73;2.70;;;4.70;99.90;;;;;;5039779;28;20212;-96
2021/12/19 12:12:25;;;;;;;8.13;2.03;;;4.70;99.90;;;;;;5040075;28;20228;-95
2021/12/19 12:15:07;;;;;;;7.43;2.17;;;4.70;99.90;;;;;;5040133;28;20684;-95
2021/12/19 12:17:47;;;;;;;11.13;2.30;;;4.70;99.90;;;;;;5051926;28;20223;-95
2021/12/19 12:20:27;;;;;;;13.83;1.90;;;4.80;99.90;;;;;;5053646;28;20292;-95
2021/12/19 12:23:10;;;;;;;9.27;1.83;;;4.80;99.90;;;;;;5055947;28;20201;-95
2021/12/19 12:25:43;;;;;;;7.03;1.80;;;4.80;99.90;;;;;;5053130;28;20208;-95
2021/12/19 12:28:21;;;;;;;6.63;1.57;;;4.80;99.90;;;;;;5052483;28;20255;-95
2021/12/19 12:30:54;;;;;;;8.73;2.20;;;4.80;99.90;;;;;;5051885;28;20200;-94
2021/12/19 12:33:32;;;;;;;9.37;2.93;;;4.80;99.90;;;;;;5049282;28;20212;-94
2021/12/19 12:36:04;;;;;;;6.20;2.23;;;4.80;99.90;;;;;;5046640;28;20214;-96
2021/12/19 12:38:35;;;;;;;11.00;2.27;;;4.80;99.90;;;;;;5026663;28;20224;-95
2021/12/19 12:41:16;;;;;;;8.83;2.07;;;4.80;99.90;;;;;;5040347;28;20205;-95
2021/12/19 12:43:47;;;;;;;9.33;3.17;;;4.80;99.90;;;;;;5039476;28;20249;-95
2021/12/19 12:46:23;;;;;;;8.43;2.50;;;4.80;99.90;;;;;;5022916;28;20865;-95
2021/12/19 12:48:57;;;;;;;8.00;2.03;;;4.80;99.90;;;;;;5053029;28;20318;-96
2021/12/19 12:51:36;;;;;;;8.73;2.37;;;4.80;99.90;;;;;;5062872;28;20215;-96
2021/12/19 12:54:10;;;;;;;5.70;2.53;;;4.70;99.90;;;;;;5041440;28;20235;-96
2021/12/19 12:56:45;;;;;;;6.23;1.77;;;4.70;99.90;;;;;;5057220;28;20212;-96
2021/12/19 12:59:18;;;;;;;6.77;2.50;;;4.70;99.90;;;;;;5057643;28;20267;-95
2021/12/19 13:01:54;;;;;;;5.57;2.00;;;4.70;99.90;;;;;;5057913;28;20211;-95
2021/12/19 13:04:26;;;;;;;11.83;2.00;;;4.70;99.90;;;;;;5056996;28;20299;-94
2021/12/19 13:07:00;;;;;;;4.27;1.27;;;4.70;99.90;;;;;;5055910;28;20204;-95
2021/12/19 13:09:36;;;;;;;8.60;1.50;;;4.70;99.90;;;;;;5056124;28;20208;-95
2021/12/19 13:12:15;;;;;;;8.33;1.90;;;4.70;99.90;;;;;;5056790;28;20296;-95
2021/12/19 13:14:52;;;;;;;15.47;2.60;;;4.70;99.90;;;;;;5057191;28;20223;-94
2021/12/19 13:17:27;;;;;;;7.17;1.97;;;4.70;99.90;;;;;;5055892;28;20287;-95
2021/12/19 13:20:01;;;;;;;8.73;1.33;;;4.70;99.90;;;;;;5056702;28;20239;-96
2021/12/19 13:22:36;;;;;;;5.03;1.60;;;4.60;99.90;;;;;;5039955;28;20203;-96
2021/12/19 13:25:11;;;;;;;5.10;1.57;;;4.60;99.90;;;;;;5056748;28;20250;-96
2021/12/19 13:27:44;;;;;;;8.67;1.70;;;4.50;99.90;;;;;;5041182;28;20243;-94
2021/12/19 13:30:21;;;;;;;5.47;1.50;;;4.50;99.90;;;;;;5037001;28;20209;-93
2021/12/19 13:32:56;;;;;;;4.60;1.77;;;4.50;99.90;;;;;;5037497;28;20447;-94
2021/12/19 13:35:29;;;;;;;6.57;1.30;;;4.50;99.90;;;;;;5041476;28;20192;-94
2021/12/19 13:38:02;;;;;;;6.57;2.27;;;4.50;99.90;;;;;;5039746;28;20225;-94
2021/12/19 13:40:36;;;;;;;8.23;1.67;;;4.50;99.90;;;;;;5039303;28;20231;-95
2021/12/19 13:43:09;;;;;;;7.53;1.70;;;4.50;99.90;;;;;;5030274;28;20210;-95
2021/12/19 13:45:47;;;;;;;5.10;1.43;;;4.40;99.90;;;;;;5022747;28;20228;-94
2021/12/19 13:48:27;;;;;;;5.37;1.63;;;4.50;99.90;;;;;;5000152;28;20205;-95
2021/12/19 13:51:05;;;;;;;5.93;1.80;;;4.40;99.90;;;;;;5019887;28;20289;-95
2021/12/19 13:53:39;;;;;;;5.97;1.80;;;4.30;99.90;;;;;;5017182;28;20205;-94
2021/12/19 13:56:13;;;;;;;7.53;2.03;;;4.30;99.90;;;;;;4983598;28;20217;-94
2021/12/19 13:58:46;;;;;;;4.93;1.47;;;4.20;99.90;;;;;;5020028;28;20244;-94
2021/12/19 14:01:22;;;;;;;5.67;1.57;;;4.20;99.90;;;;;;5034879;28;20214;-95
2021/12/19 14:03:57;;;;;;;6.03;1.70;;;4.20;99.90;;;;;;5036555;28;20212;-96
2021/12/19 14:06:31;;;;;;;7.00;1.37;;;4.10;99.90;;;;;;5034456;28;20225;-95
2021/12/19 14:09:06;;;;;;;6.10;1.73;;;4.10;99.90;;;;;;5033969;28;20216;-95
2021/12/19 14:11:39;;;;;;;7.33;1.57;;;4.00;99.90;;;;;;5021506;28;20292;-95
2021/12/19 14:14:12;;;;;;;3.73;1.07;;;4.00;99.90;;;;;;5002034;28;20644;-94
2021/12/19 14:16:47;;;;;;;6.07;1.70;;;4.00;99.90;;;;;;5016665;28;20209;-96
2021/12/19 14:19:23;;;;;;;3.90;1.30;;;4.00;99.90;;;;;;5016219;28;20574;-96
2021/12/19 14:21:58;;;;;;;10.13;1.87;;;3.90;99.90;;;;;;5016198;28;20320;-95
2021/12/19 14:24:37;;;;;;;7.97;1.60;;;3.80;99.90;;;;;;5019068;28;20273;-95
2021/12/19 14:27:19;;;;;;;6.97;1.63;;;3.70;99.90;;;;;;5038111;28;20208;-96
2021/12/19 14:29:53;;;;;;;6.50;1.40;;;3.70;99.90;;;;;;5035976;28;20209;-95